sensor_id;sensor_type;location;lat;lon;timestamp;P1;durP1;ratioP1;P2;durP2;ratioP2
14100;SDS011;7127;49.372;8.166;2023-03-29T00:00:01;1.10;;;1.00;;
14100;SDS011;7127;49.372;8.166;2023-03-29T00:02:32;1.43;;;1.03;;
14100;SDS011;7127;49.372;8.166;2023-03-29T00:04:58;1.17;;;0.87;;
14100;SDS011;7127;49.372;8.166;2023-03-29T00:07:28;1.00;;;0.90;;
14100;SDS011;7127;49.372;8.166;2023-03-29T00:09:57;1.00;;;0.90;;
14100;SDS011;7127;49.372;8.166;2023-03-29T00:12:24;0.97;;;0.73;;
14100;SDS011;7127;49.372;8.166;2023-03-29T00:14:51;0.90;;;0.80;;
14100;SDS011;7127;49.372;8.166;2023-03-29T00:17:19;0.97;;;0.80;;
14100;SDS011;7127;49.372;8.166;2023-03-29T00:19:46;1.20;;;0.70;;
14100;SDS011;7127;49.372;8.166;2023-03-29T00:22:13;1.17;;;0.73;;
14100;SDS011;7127;49.372;8.166;2023-03-29T00:24:40;0.90;;;0.80;;
14100;SDS011;7127;49.372;8.166;2023-03-29T00:27:07;0.80;;;0.80;;
14100;SDS011;7127;49.372;8.166;2023-03-29T00:29:34;1.60;;;0.83;;
14100;SDS011;7127;49.372;8.166;2023-03-29T00:32:01;1.03;;;0.70;;
14100;SDS011;7127;49.372;8.166;2023-03-29T00:34:29;0.77;;;0.70;;
14100;SDS011;7127;49.372;8.166;2023-03-29T00:36:57;0.80;;;0.77;;
14100;SDS011;7127;49.372;8.166;2023-03-29T00:39:24;0.80;;;0.80;;
14100;SDS011;7127;49.372;8.166;2023-03-29T00:41:52;0.50;;;0.50;;
14100;SDS011;7127;49.372;8.166;2023-03-29T00:47:25;0.93;;;0.90;;
14100;SDS011;7127;49.372;8.166;2023-03-29T00:49:56;0.87;;;0.80;;
14100;SDS011;7127;49.372;8.166;2023-03-29T00:52:26;1.00;;;0.73;;
14100;SDS011;7127;49.372;8.166;2023-03-29T00:54:56;1.10;;;0.90;;
14100;SDS011;7127;49.372;8.166;2023-03-29T00:57:27;1.00;;;0.73;;
14100;SDS011;7127;49.372;8.166;2023-03-29T00:59:57;0.80;;;0.73;;
14100;SDS011;7127;49.372;8.166;2023-03-29T01:02:26;1.63;;;0.80;;
14100;SDS011;7127;49.372;8.166;2023-03-29T01:05:02;1.27;;;0.80;;
14100;SDS011;7127;49.372;8.166;2023-03-29T01:07:33;0.70;;;0.70;;
14100;SDS011;7127;49.372;8.166;2023-03-29T01:10:07;0.90;;;0.70;;
14100;SDS011;7127;49.372;8.166;2023-03-29T01:12:37;1.07;;;0.97;;
14100;SDS011;7127;49.372;8.166;2023-03-29T01:15:08;0.80;;;0.70;;
14100;SDS011;7127;49.372;8.166;2023-03-29T01:17:37;1.10;;;0.93;;
14100;SDS011;7127;49.372;8.166;2023-03-29T01:20:09;0.97;;;0.80;;
14100;SDS011;7127;49.372;8.166;2023-03-29T01:22:47;0.97;;;0.93;;
14100;SDS011;7127;49.372;8.166;2023-03-29T01:25:23;1.43;;;0.83;;
14100;SDS011;7127;49.372;8.166;2023-03-29T01:27:58;0.73;;;0.73;;
14100;SDS011;7127;49.372;8.166;2023-03-29T01:30:29;1.13;;;1.00;;
14100;SDS011;7127;49.372;8.166;2023-03-29T01:33:00;1.43;;;0.80;;
14100;SDS011;7127;49.372;8.166;2023-03-29T01:35:33;1.03;;;0.83;;
14100;SDS011;7127;49.372;8.166;2023-03-29T01:38:05;1.07;;;0.90;;
14100;SDS011;7127;49.372;8.166;2023-03-29T01:40:35;1.07;;;0.80;;
14100;SDS011;7127;49.372;8.166;2023-03-29T01:43:06;0.80;;;0.80;;
14100;SDS011;7127;49.372;8.166;2023-03-29T01:45:40;0.70;;;0.70;;
14100;SDS011;7127;49.372;8.166;2023-03-29T01:48:13;0.70;;;0.70;;
14100;SDS011;7127;49.372;8.166;2023-03-29T01:50:45;0.87;;;0.70;;
14100;SDS011;7127;49.372;8.166;2023-03-29T01:53:15;0.70;;;0.70;;
14100;SDS011;7127;49.372;8.166;2023-03-29T01:55:48;1.17;;;0.70;;
14100;SDS011;7127;49.372;8.166;2023-03-29T01:58:19;1.03;;;0.83;;
14100;SDS011;7127;49.372;8.166;2023-03-29T02:00:49;0.70;;;0.70;;
14100;SDS011;7127;49.372;8.166;2023-03-29T02:03:19;0.90;;;0.70;;
14100;SDS011;7127;49.372;8.166;2023-03-29T02:05:51;1.37;;;0.80;;
14100;SDS011;7127;49.372;8.166;2023-03-29T02:08:20;0.90;;;0.70;;
14100;SDS011;7127;49.372;8.166;2023-03-29T02:10:48;0.83;;;0.70;;
14100;SDS011;7127;49.372;8.166;2023-03-29T02:13:16;0.83;;;0.80;;
14100;SDS011;7127;49.372;8.166;2023-03-29T02:15:46;0.73;;;0.73;;
14100;SDS011;7127;49.372;8.166;2023-03-29T02:18:13;0.63;;;0.63;;
14100;SDS011;7127;49.372;8.166;2023-03-29T02:20:42;0.80;;;0.70;;
14100;SDS011;7127;49.372;8.166;2023-03-29T02:23:13;1.40;;;1.00;;
14100;SDS011;7127;49.372;8.166;2023-03-29T02:25:45;0.93;;;0.80;;
14100;SDS011;7127;49.372;8.166;2023-03-29T02:28:14;1.20;;;0.90;;
14100;SDS011;7127;49.372;8.166;2023-03-29T02:30:44;1.17;;;0.70;;
14100;SDS011;7127;49.372;8.166;2023-03-29T02:35:50;0.80;;;0.70;;
14100;SDS011;7127;49.372;8.166;2023-03-29T02:38:20;0.80;;;0.80;;
14100;SDS011;7127;49.372;8.166;2023-03-29T02:40:51;1.13;;;0.80;;
14100;SDS011;7127;49.372;8.166;2023-03-29T02:43:20;1.30;;;0.80;;
14100;SDS011;7127;49.372;8.166;2023-03-29T02:45:50;1.17;;;0.90;;
14100;SDS011;7127;49.372;8.166;2023-03-29T02:48:19;1.50;;;0.93;;
14100;SDS011;7127;49.372;8.166;2023-03-29T02:50:49;1.20;;;1.07;;
14100;SDS011;7127;49.372;8.166;2023-03-29T02:53:19;1.13;;;0.97;;
14100;SDS011;7127;49.372;8.166;2023-03-29T02:55:49;1.10;;;0.90;;
14100;SDS011;7127;49.372;8.166;2023-03-29T02:58:18;1.60;;;1.23;;
14100;SDS011;7127;49.372;8.166;2023-03-29T03:00:55;1.40;;;1.30;;
14100;SDS011;7127;49.372;8.166;2023-03-29T03:03:25;1.20;;;1.10;;
14100;SDS011;7127;49.372;8.166;2023-03-29T03:05:53;1.17;;;1.07;;
14100;SDS011;7127;49.372;8.166;2023-03-29T03:08:20;1.00;;;0.90;;
14100;SDS011;7127;49.372;8.166;2023-03-29T03:10:46;1.33;;;0.90;;
14100;SDS011;7127;49.372;8.166;2023-03-29T03:13:13;0.90;;;0.90;;
14100;SDS011;7127;49.372;8.166;2023-03-29T03:15:40;1.03;;;0.97;;
14100;SDS011;7127;49.372;8.166;2023-03-29T03:18:09;1.67;;;1.07;;
14100;SDS011;7127;49.372;8.166;2023-03-29T03:20:36;1.10;;;1.00;;
14100;SDS011;7127;49.372;8.166;2023-03-29T03:23:04;1.47;;;1.00;;
14100;SDS011;7127;49.372;8.166;2023-03-29T03:25:33;1.10;;;1.00;;
14100;SDS011;7127;49.372;8.166;2023-03-29T03:28:00;1.57;;;0.90;;
14100;SDS011;7127;49.372;8.166;2023-03-29T03:30:27;1.40;;;1.20;;
14100;SDS011;7127;49.372;8.166;2023-03-29T03:32:54;1.30;;;0.93;;
14100;SDS011;7127;49.372;8.166;2023-03-29T03:35:22;9.43;;;6.03;;
14100;SDS011;7127;49.372;8.166;2023-03-29T03:37:49;6.13;;;4.50;;
14100;SDS011;7127;49.372;8.166;2023-03-29T03:40:16;3.70;;;2.80;;
14100;SDS011;7127;49.372;8.166;2023-03-29T03:42:44;2.53;;;1.70;;
14100;SDS011;7127;49.372;8.166;2023-03-29T03:45:12;1.60;;;1.50;;
14100;SDS011;7127;49.372;8.166;2023-03-29T03:47:39;1.47;;;1.20;;
14100;SDS011;7127;49.372;8.166;2023-03-29T03:50:06;0.97;;;0.97;;
14100;SDS011;7127;49.372;8.166;2023-03-29T03:52:35;1.00;;;0.90;;
14100;SDS011;7127;49.372;8.166;2023-03-29T03:55:02;1.47;;;0.80;;
14100;SDS011;7127;49.372;8.166;2023-03-29T03:57:29;1.00;;;0.80;;
14100;SDS011;7127;49.372;8.166;2023-03-29T03:59:57;2.20;;;2.00;;
14100;SDS011;7127;49.372;8.166;2023-03-29T04:02:24;1.53;;;1.30;;
14100;SDS011;7127;49.372;8.166;2023-03-29T04:04:51;1.77;;;1.47;;
14100;SDS011;7127;49.372;8.166;2023-03-29T04:07:18;1.00;;;1.00;;
14100;SDS011;7127;49.372;8.166;2023-03-29T04:09:47;1.10;;;0.93;;
14100;SDS011;7127;49.372;8.166;2023-03-29T04:12:14;1.60;;;1.10;;
14100;SDS011;7127;49.372;8.166;2023-03-29T04:14:41;1.47;;;1.10;;
14100;SDS011;7127;49.372;8.166;2023-03-29T04:17:07;1.50;;;1.23;;
14100;SDS011;7127;49.372;8.166;2023-03-29T04:19:34;1.03;;;0.97;;
14100;SDS011;7127;49.372;8.166;2023-03-29T04:22:01;1.13;;;1.00;;
14100;SDS011;7127;49.372;8.166;2023-03-29T04:24:28;1.37;;;1.27;;
14100;SDS011;7127;49.372;8.166;2023-03-29T04:26:56;1.77;;;1.40;;
14100;SDS011;7127;49.372;8.166;2023-03-29T04:29:23;1.17;;;0.90;;
14100;SDS011;7127;49.372;8.166;2023-03-29T04:31:50;0.83;;;0.80;;
14100;SDS011;7127;49.372;8.166;2023-03-29T04:34:18;1.33;;;0.80;;
14100;SDS011;7127;49.372;8.166;2023-03-29T04:36:45;2.33;;;1.30;;
14100;SDS011;7127;49.372;8.166;2023-03-29T04:39:17;1.23;;;0.70;;
14100;SDS011;7127;49.372;8.166;2023-03-29T04:41:43;0.77;;;0.77;;
14100;SDS011;7127;49.372;8.166;2023-03-29T04:44:12;0.83;;;0.83;;
14100;SDS011;7127;49.372;8.166;2023-03-29T04:46:39;0.67;;;0.67;;
14100;SDS011;7127;49.372;8.166;2023-03-29T04:49:06;1.17;;;0.90;;
14100;SDS011;7127;49.372;8.166;2023-03-29T04:51:34;1.30;;;0.93;;
14100;SDS011;7127;49.372;8.166;2023-03-29T04:54:01;1.17;;;1.07;;
14100;SDS011;7127;49.372;8.166;2023-03-29T04:56:28;2.00;;;1.50;;
14100;SDS011;7127;49.372;8.166;2023-03-29T04:58:55;1.40;;;1.30;;
14100;SDS011;7127;49.372;8.166;2023-03-29T05:01:23;1.33;;;1.00;;
14100;SDS011;7127;49.372;8.166;2023-03-29T05:03:50;2.40;;;1.07;;
14100;SDS011;7127;49.372;8.166;2023-03-29T05:06:17;1.03;;;0.93;;
14100;SDS011;7127;49.372;8.166;2023-03-29T05:08:45;1.57;;;1.00;;
14100;SDS011;7127;49.372;8.166;2023-03-29T05:11:12;1.63;;;1.17;;
14100;SDS011;7127;49.372;8.166;2023-03-29T05:13:39;1.53;;;1.10;;
14100;SDS011;7127;49.372;8.166;2023-03-29T05:16:06;1.07;;;0.90;;
14100;SDS011;7127;49.372;8.166;2023-03-29T05:18:36;1.23;;;0.80;;
14100;SDS011;7127;49.372;8.166;2023-03-29T05:21:03;1.70;;;1.17;;
14100;SDS011;7127;49.372;8.166;2023-03-29T05:23:31;1.30;;;1.20;;
14100;SDS011;7127;49.372;8.166;2023-03-29T05:25:59;1.90;;;1.30;;
14100;SDS011;7127;49.372;8.166;2023-03-29T05:28:26;3.00;;;1.10;;
14100;SDS011;7127;49.372;8.166;2023-03-29T05:30:59;2.27;;;1.20;;
14100;SDS011;7127;49.372;8.166;2023-03-29T05:33:28;2.00;;;1.00;;
14100;SDS011;7127;49.372;8.166;2023-03-29T05:35:59;3.87;;;1.00;;
14100;SDS011;7127;49.372;8.166;2023-03-29T05:38:27;2.53;;;1.10;;
14100;SDS011;7127;49.372;8.166;2023-03-29T05:40:57;1.07;;;0.97;;
14100;SDS011;7127;49.372;8.166;2023-03-29T05:43:24;1.80;;;1.10;;
14100;SDS011;7127;49.372;8.166;2023-03-29T05:45:51;1.30;;;1.00;;
14100;SDS011;7127;49.372;8.166;2023-03-29T05:48:19;1.40;;;0.73;;
14100;SDS011;7127;49.372;8.166;2023-03-29T05:50:47;1.00;;;0.90;;
14100;SDS011;7127;49.372;8.166;2023-03-29T05:53:16;1.33;;;1.00;;
14100;SDS011;7127;49.372;8.166;2023-03-29T05:55:43;1.30;;;1.10;;
14100;SDS011;7127;49.372;8.166;2023-03-29T05:58:10;1.20;;;1.10;;
14100;SDS011;7127;49.372;8.166;2023-03-29T06:00:38;1.20;;;1.10;;
14100;SDS011;7127;49.372;8.166;2023-03-29T06:03:06;1.50;;;1.10;;
14100;SDS011;7127;49.372;8.166;2023-03-29T06:05:33;2.10;;;1.50;;
14100;SDS011;7127;49.372;8.166;2023-03-29T06:08:00;1.20;;;1.10;;
14100;SDS011;7127;49.372;8.166;2023-03-29T06:10:29;1.07;;;1.00;;
14100;SDS011;7127;49.372;8.166;2023-03-29T06:12:57;1.17;;;1.00;;
14100;SDS011;7127;49.372;8.166;2023-03-29T06:15:24;1.40;;;1.10;;
14100;SDS011;7127;49.372;8.166;2023-03-29T06:17:50;1.10;;;1.00;;
14100;SDS011;7127;49.372;8.166;2023-03-29T06:20:17;1.67;;;1.10;;
14100;SDS011;7127;49.372;8.166;2023-03-29T06:22:44;1.00;;;0.90;;
14100;SDS011;7127;49.372;8.166;2023-03-29T06:25:12;2.03;;;1.07;;
14100;SDS011;7127;49.372;8.166;2023-03-29T06:27:40;1.27;;;0.90;;
14100;SDS011;7127;49.372;8.166;2023-03-29T06:30:07;1.10;;;1.00;;
14100;SDS011;7127;49.372;8.166;2023-03-29T06:32:36;1.07;;;0.97;;
14100;SDS011;7127;49.372;8.166;2023-03-29T06:35:03;1.00;;;0.90;;
14100;SDS011;7127;49.372;8.166;2023-03-29T06:37:30;0.90;;;0.90;;
14100;SDS011;7127;49.372;8.166;2023-03-29T06:39:57;1.20;;;1.10;;
14100;SDS011;7127;49.372;8.166;2023-03-29T06:42:25;1.00;;;0.90;;
14100;SDS011;7127;49.372;8.166;2023-03-29T06:44:54;1.13;;;1.00;;
14100;SDS011;7127;49.372;8.166;2023-03-29T06:47:23;1.07;;;1.07;;
14100;SDS011;7127;49.372;8.166;2023-03-29T06:49:54;1.07;;;1.00;;
14100;SDS011;7127;49.372;8.166;2023-03-29T06:52:21;1.33;;;1.00;;
14100;SDS011;7127;49.372;8.166;2023-03-29T06:54:48;1.17;;;1.00;;
14100;SDS011;7127;49.372;8.166;2023-03-29T06:57:15;1.03;;;0.90;;
14100;SDS011;7127;49.372;8.166;2023-03-29T06:59:42;0.97;;;0.90;;
14100;SDS011;7127;49.372;8.166;2023-03-29T07:02:12;1.43;;;0.90;;
14100;SDS011;7127;49.372;8.166;2023-03-29T07:04:39;1.10;;;1.00;;
14100;SDS011;7127;49.372;8.166;2023-03-29T07:07:06;1.13;;;0.83;;
14100;SDS011;7127;49.372;8.166;2023-03-29T07:09:44;1.70;;;1.00;;
14100;SDS011;7127;49.372;8.166;2023-03-29T07:12:17;1.03;;;1.00;;
14100;SDS011;7127;49.372;8.166;2023-03-29T07:14:45;1.43;;;0.93;;
14100;SDS011;7127;49.372;8.166;2023-03-29T07:17:14;1.00;;;0.90;;
14100;SDS011;7127;49.372;8.166;2023-03-29T07:19:40;2.43;;;1.10;;
14100;SDS011;7127;49.372;8.166;2023-03-29T07:22:07;1.00;;;0.90;;
14100;SDS011;7127;49.372;8.166;2023-03-29T07:24:34;1.00;;;0.90;;
14100;SDS011;7127;49.372;8.166;2023-03-29T07:27:01;1.03;;;0.90;;
14100;SDS011;7127;49.372;8.166;2023-03-29T07:29:28;0.90;;;0.80;;
14100;SDS011;7127;49.372;8.166;2023-03-29T07:31:55;1.17;;;1.00;;
14100;SDS011;7127;49.372;8.166;2023-03-29T07:34:23;1.00;;;0.90;;
14100;SDS011;7127;49.372;8.166;2023-03-29T07:36:51;5.40;;;2.90;;
14100;SDS011;7127;49.372;8.166;2023-03-29T07:39:18;6.00;;;4.20;;
14100;SDS011;7127;49.372;8.166;2023-03-29T07:41:46;4.07;;;3.53;;
14100;SDS011;7127;49.372;8.166;2023-03-29T07:44:13;3.43;;;2.43;;
14100;SDS011;7127;49.372;8.166;2023-03-29T07:46:43;2.20;;;1.93;;
14100;SDS011;7127;49.372;8.166;2023-03-29T07:49:10;2.30;;;1.80;;
14100;SDS011;7127;49.372;8.166;2023-03-29T07:51:38;1.57;;;1.20;;
14100;SDS011;7127;49.372;8.166;2023-03-29T07:54:06;1.67;;;1.43;;
14100;SDS011;7127;49.372;8.166;2023-03-29T07:56:33;2.03;;;1.50;;
14100;SDS011;7127;49.372;8.166;2023-03-29T07:59:00;1.53;;;1.40;;
14100;SDS011;7127;49.372;8.166;2023-03-29T08:01:27;1.30;;;1.20;;
14100;SDS011;7127;49.372;8.166;2023-03-29T08:03:54;1.13;;;1.03;;
14100;SDS011;7127;49.372;8.166;2023-03-29T08:06:22;1.70;;;1.00;;
14100;SDS011;7127;49.372;8.166;2023-03-29T08:08:52;1.97;;;1.10;;
14100;SDS011;7127;49.372;8.166;2023-03-29T08:11:19;1.20;;;1.10;;
14100;SDS011;7127;49.372;8.166;2023-03-29T08:13:46;1.10;;;1.00;;
14100;SDS011;7127;49.372;8.166;2023-03-29T08:16:13;1.03;;;0.93;;
14100;SDS011;7127;49.372;8.166;2023-03-29T08:18:40;1.50;;;1.20;;
14100;SDS011;7127;49.372;8.166;2023-03-29T08:21:07;1.43;;;1.00;;
14100;SDS011;7127;49.372;8.166;2023-03-29T08:23:34;1.33;;;0.90;;
14100;SDS011;7127;49.372;8.166;2023-03-29T08:26:02;0.80;;;0.80;;
14100;SDS011;7127;49.372;8.166;2023-03-29T08:28:29;1.10;;;1.00;;
14100;SDS011;7127;49.372;8.166;2023-03-29T08:30:57;1.70;;;1.20;;
14100;SDS011;7127;49.372;8.166;2023-03-29T08:33:24;2.07;;;1.50;;
14100;SDS011;7127;49.372;8.166;2023-03-29T08:35:51;1.90;;;1.70;;
14100;SDS011;7127;49.372;8.166;2023-03-29T08:38:18;1.90;;;1.70;;
14100;SDS011;7127;49.372;8.166;2023-03-29T08:40:46;1.40;;;1.30;;
14100;SDS011;7127;49.372;8.166;2023-03-29T08:43:18;1.43;;;1.23;;
14100;SDS011;7127;49.372;8.166;2023-03-29T08:45:55;1.30;;;1.20;;
14100;SDS011;7127;49.372;8.166;2023-03-29T08:48:32;2.13;;;1.20;;
14100;SDS011;7127;49.372;8.166;2023-03-29T08:51:08;1.90;;;1.10;;
14100;SDS011;7127;49.372;8.166;2023-03-29T08:53:42;1.20;;;0.83;;
14100;SDS011;7127;49.372;8.166;2023-03-29T08:56:14;1.50;;;0.90;;
14100;SDS011;7127;49.372;8.166;2023-03-29T08:58:44;1.73;;;0.90;;
14100;SDS011;7127;49.372;8.166;2023-03-29T09:01:12;0.97;;;0.90;;
14100;SDS011;7127;49.372;8.166;2023-03-29T09:03:41;0.97;;;0.87;;
14100;SDS011;7127;49.372;8.166;2023-03-29T09:06:12;0.77;;;0.77;;
14100;SDS011;7127;49.372;8.166;2023-03-29T09:08:39;2.17;;;1.30;;
14100;SDS011;7127;49.372;8.166;2023-03-29T09:11:13;0.93;;;0.80;;
14100;SDS011;7127;49.372;8.166;2023-03-29T09:14:03;1.93;;;0.73;;
14100;SDS011;7127;49.372;8.166;2023-03-29T09:16:45;0.70;;;0.70;;
14100;SDS011;7127;49.372;8.166;2023-03-29T09:19:21;1.37;;;0.70;;
14100;SDS011;7127;49.372;8.166;2023-03-29T09:21:57;1.50;;;0.70;;
14100;SDS011;7127;49.372;8.166;2023-03-29T09:24:35;0.97;;;0.87;;
14100;SDS011;7127;49.372;8.166;2023-03-29T09:27:10;1.00;;;0.90;;
14100;SDS011;7127;49.372;8.166;2023-03-29T09:29:45;1.53;;;0.83;;
14100;SDS011;7127;49.372;8.166;2023-03-29T09:32:36;0.60;;;0.60;;
14100;SDS011;7127;49.372;8.166;2023-03-29T09:35:10;0.97;;;0.87;;
14100;SDS011;7127;49.372;8.166;2023-03-29T09:37:43;0.77;;;0.73;;
14100;SDS011;7127;49.372;8.166;2023-03-29T09:40:12;0.97;;;0.80;;
14100;SDS011;7127;49.372;8.166;2023-03-29T09:42:43;1.30;;;0.97;;
14100;SDS011;7127;49.372;8.166;2023-03-29T09:45:13;0.90;;;0.90;;
14100;SDS011;7127;49.372;8.166;2023-03-29T09:47:41;1.10;;;0.97;;
14100;SDS011;7127;49.372;8.166;2023-03-29T09:50:12;0.83;;;0.83;;
14100;SDS011;7127;49.372;8.166;2023-03-29T09:52:43;1.47;;;0.83;;
14100;SDS011;7127;49.372;8.166;2023-03-29T09:55:11;1.10;;;0.90;;
14100;SDS011;7127;49.372;8.166;2023-03-29T09:57:40;1.30;;;1.00;;
14100;SDS011;7127;49.372;8.166;2023-03-29T10:00:08;0.80;;;0.80;;
14100;SDS011;7127;49.372;8.166;2023-03-29T10:02:37;1.17;;;1.00;;
14100;SDS011;7127;49.372;8.166;2023-03-29T10:05:04;1.43;;;1.00;;
14100;SDS011;7127;49.372;8.166;2023-03-29T10:07:33;2.13;;;1.10;;
14100;SDS011;7127;49.372;8.166;2023-03-29T10:10:08;1.20;;;1.10;;
14100;SDS011;7127;49.372;8.166;2023-03-29T10:12:41;1.43;;;1.30;;
14100;SDS011;7127;49.372;8.166;2023-03-29T10:15:14;2.53;;;1.23;;
14100;SDS011;7127;49.372;8.166;2023-03-29T10:17:44;1.50;;;1.40;;
14100;SDS011;7127;49.372;8.166;2023-03-29T10:20:12;1.60;;;1.20;;
14100;SDS011;7127;49.372;8.166;2023-03-29T10:22:45;1.40;;;1.23;;
14100;SDS011;7127;49.372;8.166;2023-03-29T10:25:13;1.37;;;1.00;;
14100;SDS011;7127;49.372;8.166;2023-03-29T10:27:42;1.10;;;1.00;;
14100;SDS011;7127;49.372;8.166;2023-03-29T10:30:10;1.30;;;1.10;;
14100;SDS011;7127;49.372;8.166;2023-03-29T10:32:45;0.90;;;0.90;;
14100;SDS011;7127;49.372;8.166;2023-03-29T10:35:18;1.17;;;1.00;;
14100;SDS011;7127;49.372;8.166;2023-03-29T10:37:48;1.10;;;1.00;;
14100;SDS011;7127;49.372;8.166;2023-03-29T10:40:17;1.10;;;0.90;;
14100;SDS011;7127;49.372;8.166;2023-03-29T10:42:47;1.67;;;1.10;;
14100;SDS011;7127;49.372;8.166;2023-03-29T10:45:19;1.30;;;1.20;;
14100;SDS011;7127;49.372;8.166;2023-03-29T10:47:53;1.40;;;1.30;;
14100;SDS011;7127;49.372;8.166;2023-03-29T10:50:21;1.70;;;1.20;;
14100;SDS011;7127;49.372;8.166;2023-03-29T10:52:48;1.47;;;1.37;;
14100;SDS011;7127;49.372;8.166;2023-03-29T10:55:15;3.03;;;1.20;;
14100;SDS011;7127;49.372;8.166;2023-03-29T10:57:45;1.23;;;1.07;;
14100;SDS011;7127;49.372;8.166;2023-03-29T11:00:19;1.50;;;1.07;;
14100;SDS011;7127;49.372;8.166;2023-03-29T11:03:00;1.07;;;1.00;;
14100;SDS011;7127;49.372;8.166;2023-03-29T11:05:37;1.27;;;1.07;;
14100;SDS011;7127;49.372;8.166;2023-03-29T11:08:11;1.00;;;0.90;;
14100;SDS011;7127;49.372;8.166;2023-03-29T11:11:02;1.03;;;0.93;;
14100;SDS011;7127;49.372;8.166;2023-03-29T11:13:38;1.43;;;1.03;;
14100;SDS011;7127;49.372;8.166;2023-03-29T11:16:15;1.60;;;1.00;;
14100;SDS011;7127;49.372;8.166;2023-03-29T11:18:55;1.20;;;0.80;;
14100;SDS011;7127;49.372;8.166;2023-03-29T11:21:34;1.00;;;0.90;;
14100;SDS011;7127;49.372;8.166;2023-03-29T11:24:12;1.73;;;0.90;;
14100;SDS011;7127;49.372;8.166;2023-03-29T11:26:52;1.30;;;0.90;;
14100;SDS011;7127;49.372;8.166;2023-03-29T11:29:29;1.20;;;1.10;;
14100;SDS011;7127;49.372;8.166;2023-03-29T11:32:04;1.20;;;1.03;;
14100;SDS011;7127;49.372;8.166;2023-03-29T11:34:40;1.17;;;0.93;;
14100;SDS011;7127;49.372;8.166;2023-03-29T11:37:19;1.57;;;0.97;;
14100;SDS011;7127;49.372;8.166;2023-03-29T11:39:53;1.53;;;0.87;;
14100;SDS011;7127;49.372;8.166;2023-03-29T11:42:32;1.40;;;0.80;;
14100;SDS011;7127;49.372;8.166;2023-03-29T11:45:01;1.00;;;0.80;;
14100;SDS011;7127;49.372;8.166;2023-03-29T11:47:30;1.13;;;0.90;;
14100;SDS011;7127;49.372;8.166;2023-03-29T11:50:03;1.00;;;0.73;;
14100;SDS011;7127;49.372;8.166;2023-03-29T11:52:41;0.60;;;0.50;;
14100;SDS011;7127;49.372;8.166;2023-03-29T11:55:10;1.93;;;0.93;;
14100;SDS011;7127;49.372;8.166;2023-03-29T11:57:41;1.47;;;0.90;;
14100;SDS011;7127;49.372;8.166;2023-03-29T12:00:14;1.43;;;0.90;;
14100;SDS011;7127;49.372;8.166;2023-03-29T12:02:46;0.83;;;0.83;;
14100;SDS011;7127;49.372;8.166;2023-03-29T12:05:22;1.37;;;0.87;;
14100;SDS011;7127;49.372;8.166;2023-03-29T12:07:54;1.13;;;0.80;;
14100;SDS011;7127;49.372;8.166;2023-03-29T12:10:27;1.43;;;0.93;;
14100;SDS011;7127;49.372;8.166;2023-03-29T12:12:59;0.87;;;0.70;;
14100;SDS011;7127;49.372;8.166;2023-03-29T12:15:31;1.77;;;0.80;;
14100;SDS011;7127;49.372;8.166;2023-03-29T12:18:08;0.87;;;0.80;;
14100;SDS011;7127;49.372;8.166;2023-03-29T12:20:45;0.70;;;0.70;;
14100;SDS011;7127;49.372;8.166;2023-03-29T12:23:17;1.53;;;0.90;;
14100;SDS011;7127;49.372;8.166;2023-03-29T12:25:47;0.87;;;0.80;;
14100;SDS011;7127;49.372;8.166;2023-03-29T12:28:21;1.53;;;1.03;;
14100;SDS011;7127;49.372;8.166;2023-03-29T12:30:59;0.70;;;0.70;;
14100;SDS011;7127;49.372;8.166;2023-03-29T12:36:45;1.20;;;0.90;;
14100;SDS011;7127;49.372;8.166;2023-03-29T12:39:26;0.93;;;0.67;;
14100;SDS011;7127;49.372;8.166;2023-03-29T12:42:02;0.80;;;0.80;;
14100;SDS011;7127;49.372;8.166;2023-03-29T12:44:31;1.23;;;0.70;;
14100;SDS011;7127;49.372;8.166;2023-03-29T12:46:58;0.87;;;0.73;;
14100;SDS011;7127;49.372;8.166;2023-03-29T12:49:28;1.00;;;0.90;;
14100;SDS011;7127;49.372;8.166;2023-03-29T12:52:00;0.80;;;0.70;;
14100;SDS011;7127;49.372;8.166;2023-03-29T12:54:31;1.07;;;0.80;;
14100;SDS011;7127;49.372;8.166;2023-03-29T12:56:59;1.50;;;1.00;;
14100;SDS011;7127;49.372;8.166;2023-03-29T12:59:35;1.07;;;0.97;;
14100;SDS011;7127;49.372;8.166;2023-03-29T13:02:18;1.40;;;0.80;;
14100;SDS011;7127;49.372;8.166;2023-03-29T13:05:00;0.90;;;0.90;;
14100;SDS011;7127;49.372;8.166;2023-03-29T13:07:30;1.40;;;1.30;;
14100;SDS011;7127;49.372;8.166;2023-03-29T13:10:27;1.20;;;1.10;;
14100;SDS011;7127;49.372;8.166;2023-03-29T13:13:06;1.23;;;0.93;;
14100;SDS011;7127;49.372;8.166;2023-03-29T13:15:41;1.10;;;1.00;;
14100;SDS011;7127;49.372;8.166;2023-03-29T13:18:14;1.47;;;0.87;;
14100;SDS011;7127;49.372;8.166;2023-03-29T13:21:01;0.80;;;0.80;;
14100;SDS011;7127;49.372;8.166;2023-03-29T13:23:40;0.77;;;0.77;;
14100;SDS011;7127;49.372;8.166;2023-03-29T13:26:26;1.43;;;0.90;;
14100;SDS011;7127;49.372;8.166;2023-03-29T13:29:20;0.90;;;0.80;;
14100;SDS011;7127;49.372;8.166;2023-03-29T13:32:04;1.50;;;1.00;;
14100;SDS011;7127;49.372;8.166;2023-03-29T13:34:47;3.50;;;0.90;;
14100;SDS011;7127;49.372;8.166;2023-03-29T13:37:23;0.90;;;0.90;;
14100;SDS011;7127;49.372;8.166;2023-03-29T13:39:58;0.93;;;0.90;;
14100;SDS011;7127;49.372;8.166;2023-03-29T13:42:36;1.33;;;1.00;;
14100;SDS011;7127;49.372;8.166;2023-03-29T13:45:12;0.90;;;0.90;;
14100;SDS011;7127;49.372;8.166;2023-03-29T13:47:41;0.80;;;0.70;;
14100;SDS011;7127;49.372;8.166;2023-03-29T13:50:13;0.90;;;0.90;;
14100;SDS011;7127;49.372;8.166;2023-03-29T13:52:44;0.87;;;0.87;;
14100;SDS011;7127;49.372;8.166;2023-03-29T13:55:19;0.80;;;0.80;;
14100;SDS011;7127;49.372;8.166;2023-03-29T13:57:51;1.23;;;0.93;;
14100;SDS011;7127;49.372;8.166;2023-03-29T14:00:22;1.00;;;0.80;;
14100;SDS011;7127;49.372;8.166;2023-03-29T14:02:53;1.00;;;0.83;;
14100;SDS011;7127;49.372;8.166;2023-03-29T14:05:25;2.00;;;1.00;;
14100;SDS011;7127;49.372;8.166;2023-03-29T14:07:55;0.63;;;0.63;;
14100;SDS011;7127;49.372;8.166;2023-03-29T14:10:29;0.70;;;0.70;;
14100;SDS011;7127;49.372;8.166;2023-03-29T14:13:00;0.63;;;0.63;;
14100;SDS011;7127;49.372;8.166;2023-03-29T14:15:35;0.87;;;0.80;;
14100;SDS011;7127;49.372;8.166;2023-03-29T14:18:09;0.70;;;0.63;;
14100;SDS011;7127;49.372;8.166;2023-03-29T14:20:38;0.80;;;0.60;;
14100;SDS011;7127;49.372;8.166;2023-03-29T14:23:09;0.87;;;0.73;;
14100;SDS011;7127;49.372;8.166;2023-03-29T14:25:37;0.90;;;0.70;;
14100;SDS011;7127;49.372;8.166;2023-03-29T14:28:11;0.63;;;0.63;;
14100;SDS011;7127;49.372;8.166;2023-03-29T14:30:44;0.90;;;0.70;;
14100;SDS011;7127;49.372;8.166;2023-03-29T14:33:11;1.03;;;0.70;;
14100;SDS011;7127;49.372;8.166;2023-03-29T14:35:41;1.27;;;0.70;;
14100;SDS011;7127;49.372;8.166;2023-03-29T14:38:08;1.40;;;0.60;;
14100;SDS011;7127;49.372;8.166;2023-03-29T14:40:38;1.13;;;0.70;;
14100;SDS011;7127;49.372;8.166;2023-03-29T14:43:05;0.93;;;0.50;;
14100;SDS011;7127;49.372;8.166;2023-03-29T14:45:35;0.83;;;0.70;;
14100;SDS011;7127;49.372;8.166;2023-03-29T14:48:02;0.83;;;0.60;;
14100;SDS011;7127;49.372;8.166;2023-03-29T14:50:30;0.40;;;0.40;;
14100;SDS011;7127;49.372;8.166;2023-03-29T14:53:00;0.87;;;0.53;;
14100;SDS011;7127;49.372;8.166;2023-03-29T14:55:28;1.40;;;0.63;;
14100;SDS011;7127;49.372;8.166;2023-03-29T14:57:55;1.07;;;0.70;;
14100;SDS011;7127;49.372;8.166;2023-03-29T15:00:25;0.90;;;0.77;;
14100;SDS011;7127;49.372;8.166;2023-03-29T15:02:55;1.17;;;0.70;;
14100;SDS011;7127;49.372;8.166;2023-03-29T15:05:27;1.03;;;0.90;;
14100;SDS011;7127;49.372;8.166;2023-03-29T15:08:03;1.20;;;0.80;;
14100;SDS011;7127;49.372;8.166;2023-03-29T15:10:34;0.70;;;0.70;;
14100;SDS011;7127;49.372;8.166;2023-03-29T15:13:03;1.10;;;0.70;;
14100;SDS011;7127;49.372;8.166;2023-03-29T15:15:32;1.70;;;0.70;;
14100;SDS011;7127;49.372;8.166;2023-03-29T15:18:01;0.73;;;0.60;;
14100;SDS011;7127;49.372;8.166;2023-03-29T15:20:31;0.97;;;0.90;;
14100;SDS011;7127;49.372;8.166;2023-03-29T15:23:01;1.10;;;0.57;;
14100;SDS011;7127;49.372;8.166;2023-03-29T15:25:34;0.60;;;0.60;;
14100;SDS011;7127;49.372;8.166;2023-03-29T15:28:03;0.60;;;0.60;;